Time;durP1;ratioP1;P1;durP2;ratioP2;P2;SDS_P1;SDS_P2;PMS_P1;PMS_P2;Temp;Humidity;BMP_temperature;BMP_pressure;BME280_temperature;BME280_humidity;BME280_pressure;Samples;Min_cycle;Max_cycle;Signal;HPM_P1;HPM_P2
2022/06/20 00:02:21;;;;;;;1.70;1.60;;;22.40;48.10;;;;;;5026971;28;20237;-58
2022/06/20 00:04:48;;;;;;;1.43;1.33;;;22.40;48.00;;;;;;5027705;28;20465;-58
2022/06/20 00:07:14;;;;;;;1.60;1.50;;;22.40;48.00;;;;;;5026740;28;20456;-58
2022/06/20 00:09:40;;;;;;;1.80;1.70;;;22.30;47.90;;;;;;5029127;28;20504;-58
2022/06/20 00:12:06;;;;;;;1.60;1.50;;;22.30;47.90;;;;;;5025480;28;20504;-59
2022/06/20 00:14:32;;;;;;;1.80;1.70;;;22.30;47.90;;;;;;5030361;28;20562;-58
2022/06/20 00:16:58;;;;;;;1.90;1.80;;;22.30;47.90;;;;;;5026679;28;20460;-59
2022/06/20 00:19:23;;;;;;;1.93;1.50;;;22.40;48.00;;;;;;5025737;28;20224;-58
2022/06/20 00:21:49;;;;;;;1.50;1.40;;;22.40;48.00;;;;;;5027998;28;20227;-58
2022/06/20 00:24:15;;;;;;;1.70;1.60;;;22.40;48.10;;;;;;5025430;28;20281;-58
2022/06/20 00:26:40;;;;;;;1.50;1.40;;;22.30;47.90;;;;;;5026310;28;20215;-58
2022/06/20 00:29:07;;;;;;;1.70;1.60;;;22.30;47.90;;;;;;5025370;28;20302;-59
2022/06/20 00:31:34;;;;;;;1.70;1.60;;;22.40;48.00;;;;;;5023943;28;20242;-58
2022/06/20 00:34:00;;;;;;;1.50;1.40;;;22.30;47.90;;;;;;5025047;28;20811;-59
2022/06/20 00:36:26;;;;;;;1.57;1.47;;;22.30;47.90;;;;;;5027422;28;21026;-58
2022/06/20 00:38:54;;;;;;;1.87;1.57;;;22.30;47.90;;;;;;5020563;28;20270;-58
2022/06/20 00:41:24;;;;;;;1.60;1.50;;;22.30;47.90;;;;;;5023648;28;20717;-58
2022/06/20 00:43:52;;;;;;;1.60;1.50;;;22.30;47.90;;;;;;5023868;28;20453;-58
2022/06/20 00:46:29;;;;;;;1.77;1.67;;;22.30;47.90;;;;;;5020039;28;20449;-58
2022/06/20 00:49:09;;;;;;;1.90;1.80;;;22.30;47.90;;;;;;5024154;28;20460;-58
2022/06/20 00:51:39;;;;;;;1.77;1.50;;;22.30;47.90;;;;;;5022954;28;20476;-58
2022/06/20 00:54:08;;;;;;;2.00;1.90;;;22.30;47.90;;;;;;5023111;28;20498;-58
2022/06/20 00:56:50;;;;;;;1.33;1.23;;;22.30;47.90;;;;;;5024839;28;20457;-58
2022/06/20 00:59:21;;;;;;;1.60;1.50;;;22.30;48.00;;;;;;5018613;28;20453;-58
2022/06/20 01:01:48;;;;;;;1.70;1.60;;;22.30;48.00;;;;;;5022756;28;20491;-58
2022/06/20 01:04:44;;;;;;;1.70;1.60;;;22.30;48.00;;;;;;5024353;28;20449;-58
2022/06/20 01:07:24;;;;;;;1.70;1.60;;;22.30;48.00;;;;;;5020672;28;20461;-59
2022/06/20 01:09:54;;;;;;;1.70;1.60;;;22.30;48.00;;;;;;5021978;28;20448;-58
2022/06/20 01:12:21;;;;;;;1.60;1.50;;;22.30;48.00;;;;;;5019304;28;20448;-58
2022/06/20 01:14:47;;;;;;;1.63;1.53;;;22.30;48.00;;;;;;5022289;28;20448;-58
2022/06/20 01:17:30;;;;;;;1.60;1.50;;;22.30;48.00;;;;;;5024758;28;21007;-58
2022/06/20 01:20:18;;;;;;;1.70;1.60;;;22.30;48.00;;;;;;5023438;28;20219;-58
2022/06/20 01:22:54;;;;;;;1.60;1.50;;;22.30;48.00;;;;;;5026411;28;20461;-58
2022/06/20 01:25:57;;;;;;;1.63;1.53;;;22.30;48.00;;;;;;5022986;28;20456;-58
2022/06/20 01:28:34;;;;;;;1.80;1.70;;;22.30;48.00;;;;;;5026329;28;20456;-58
2022/06/20 01:31:00;;;;;;;1.90;1.80;;;22.30;48.00;;;;;;5024848;28;21018;-58
2022/06/20 01:33:27;;;;;;;1.50;1.40;;;22.30;48.00;;;;;;5016110;28;20796;-58
2022/06/20 01:38:41;;;;;;;1.50;1.40;;;22.30;48.00;;;;;;5025111;28;20434;-58
2022/06/20 01:43:55;;;;;;;1.57;1.47;;;22.30;48.00;;;;;;5025405;28;20548;-58
2022/06/20 01:46:24;;;;;;;1.50;1.40;;;22.30;48.00;;;;;;5020235;28;20455;-58
2022/06/20 01:48:55;;;;;;;1.50;1.40;;;22.30;47.90;;;;;;5025413;28;20522;-57
2022/06/20 01:51:24;;;;;;;1.53;1.43;;;22.30;48.00;;;;;;5022980;28;20465;-58
2022/06/20 01:53:53;;;;;;;1.47;1.37;;;22.30;48.00;;;;;;5019527;28;20975;-58
2022/06/20 01:56:21;;;;;;;1.40;1.30;;;22.30;48.00;;;;;;5023949;28;20440;-58
2022/06/20 01:58:53;;;;;;;1.57;1.47;;;22.30;48.70;;;;;;5022488;28;20415;-57
2022/06/20 02:01:19;;;;;;;1.70;1.60;;;22.30;48.00;;;;;;5020550;28;20476;-58
2022/06/20 02:03:47;;;;;;;1.77;1.67;;;22.30;48.00;;;;;;5021831;28;20457;-58
2022/06/20 02:06:15;;;;;;;1.60;1.50;;;22.30;48.00;;;;;;5021977;28;20214;-58
2022/06/20 02:08:43;;;;;;;1.87;1.77;;;22.30;48.00;;;;;;5020732;28;20456;-58
2022/06/20 02:11:17;;;;;;;1.53;1.43;;;22.30;48.00;;;;;;5022564;28;20989;-58
2022/06/20 02:13:48;;;;;;;1.63;1.53;;;22.30;47.90;;;;;;5017797;28;20454;-58
2022/06/20 02:16:17;;;;;;;1.40;1.30;;;22.30;47.90;;;;;;5022634;28;20514;-58
2022/06/20 02:18:47;;;;;;;1.60;1.50;;;22.30;48.00;;;;;;5018264;28;20460;-58
2022/06/20 02:21:21;;;;;;;1.53;1.43;;;22.30;48.00;;;;;;5025719;28;20534;-58
2022/06/20 02:23:51;;;;;;;1.70;1.60;;;22.30;48.00;;;;;;5022840;28;20419;-58
2022/06/20 02:26:18;;;;;;;1.40;1.30;;;22.30;48.00;;;;;;5018097;28;20456;-58
2022/06/20 02:28:54;;;;;;;1.60;1.50;;;22.30;48.80;;;;;;5021998;28;20488;-58
2022/06/20 02:31:20;;;;;;;1.50;1.40;;;22.30;48.00;;;;;;5020448;28;20453;-58
2022/06/20 02:33:47;;;;;;;1.90;1.80;;;22.30;48.00;;;;;;5013800;28;20448;-57
2022/06/20 02:36:13;;;;;;;1.60;1.50;;;22.30;48.00;;;;;;5022951;28;20220;-57
2022/06/20 02:38:39;;;;;;;1.50;1.40;;;22.30;48.10;;;;;;5015029;28;20453;-58
2022/06/20 02:41:06;;;;;;;1.40;1.30;;;22.30;48.00;;;;;;5017739;28;20605;-58
2022/06/20 02:43:46;;;;;;;1.70;1.60;;;22.30;48.00;;;;;;5024498;28;20976;-58
2022/06/20 02:46:16;;;;;;;1.50;1.40;;;22.30;48.10;;;;;;5025095;28;20455;-58
2022/06/20 02:48:44;;;;;;;1.50;1.40;;;22.30;48.10;;;;;;5019009;28;20834;-58
2022/06/20 02:51:13;;;;;;;1.60;1.50;;;22.30;48.10;;;;;;5025486;28;20536;-58
2022/06/20 02:53:47;;;;;;;1.63;1.53;;;22.30;48.10;;;;;;5018769;28;20450;-58
2022/06/20 02:56:16;;;;;;;1.60;1.50;;;22.30;48.10;;;;;;5025623;28;20565;-58
2022/06/20 02:58:46;;;;;;;1.50;1.40;;;22.30;48.10;;;;;;5023227;28;20444;-58
2022/06/20 03:01:23;;;;;;;1.97;1.57;;;22.30;48.10;;;;;;5019812;28;21119;-58
2022/06/20 03:03:54;;;;;;;1.60;1.50;;;22.30;48.00;;;;;;5025813;28;20468;-58
2022/06/20 03:06:31;;;;;;;1.60;1.50;;;22.30;48.10;;;;;;5019086;28;20422;-58
2022/06/20 03:08:58;;;;;;;1.93;1.83;;;22.30;48.10;;;;;;5022951;28;20448;-59
2022/06/20 03:11:26;;;;;;;1.60;1.50;;;22.30;48.10;;;;;;5023218;28;20487;-58
2022/06/20 03:13:53;;;;;;;1.70;1.60;;;22.30;48.90;;;;;;5017301;28;21357;-58
2022/06/20 03:16:21;;;;;;;1.60;1.50;;;22.30;48.10;;;;;;5023208;28;20449;-58
2022/06/20 03:18:50;;;;;;;1.50;1.40;;;22.30;48.10;;;;;;5019984;28;20454;-58
2022/06/20 03:21:35;;;;;;;1.80;1.70;;;22.30;48.10;;;;;;5020534;28;20551;-58
2022/06/20 03:24:03;;;;;;;1.50;1.40;;;22.30;48.10;;;;;;5017748;28;20465;-58
2022/06/20 03:26:29;;;;;;;1.40;1.30;;;22.30;48.10;;;;;;5018463;28;20457;-58
2022/06/20 03:28:55;;;;;;;1.50;1.40;;;22.30;48.10;;;;;;5017726;28;20456;-58
2022/06/20 03:31:21;;;;;;;1.60;1.50;;;22.30;48.10;;;;;;5021257;28;20445;-58
2022/06/20 03:33:47;;;;;;;1.53;1.43;;;22.30;48.10;;;;;;5016612;28;20225;-58
2022/06/20 03:36:27;;;;;;;1.30;1.20;;;22.30;48.10;;;;;;5022557;28;20542;-58
2022/06/20 03:38:54;;;;;;;1.50;1.40;;;22.30;48.10;;;;;;5025015;28;20457;-58
2022/06/20 03:41:24;;;;;;;1.30;1.20;;;22.30;48.10;;;;;;5026202;28;20468;-58
2022/06/20 03:44:04;;;;;;;1.40;1.30;;;22.30;48.10;;;;;;5026569;28;20458;-58
2022/06/20 03:47:03;;;;;;;1.50;1.40;;;22.30;48.10;;;;;;5023153;28;20448;-58
2022/06/20 03:49:34;;;;;;;1.60;1.50;;;22.30;48.10;;;;;;5015950;28;20971;-58
2022/06/20 03:52:21;;;;;;;1.67;1.57;;;22.30;48.80;;;;;;5022604;28;20831;-58
2022/06/20 03:54:52;;;;;;;1.70;1.60;;;22.30;48.10;;;;;;5026051;28;20948;-58
2022/06/20 03:57:27;;;;;;;1.50;1.40;;;22.30;48.10;;;;;;5020339;28;20945;-58
2022/06/20 04:00:00;;;;;;;1.30;1.20;;;22.30;48.10;;;;;;5018785;28;20490;-58
2022/06/20 04:02:41;;;;;;;1.80;1.70;;;22.30;48.10;;;;;;5024624;28;20449;-58
2022/06/20 04:05:21;;;;;;;1.80;1.70;;;22.30;48.10;;;;;;5024601;28;20457;-58
2022/06/20 04:07:56;;;;;;;1.50;1.40;;;22.30;48.00;;;;;;5024120;28;20452;-58
2022/06/20 04:13:25;;;;;;;1.60;1.50;;;22.30;48.10;;;;;;5023695;28;20486;-58
2022/06/20 04:15:55;;;;;;;1.70;1.60;;;22.30;48.10;;;;;;5031292;28;20448;-58
2022/06/20 04:18:30;;;;;;;1.50;1.40;;;22.30;48.10;;;;;;5025353;28;20525;-61
2022/06/20 04:21:17;;;;;;;1.60;1.50;;;22.30;48.10;;;;;;5025062;28;20456;-60
2022/06/20 04:23:47;;;;;;;1.87;1.77;;;22.30;48.00;;;;;;5025798;28;21166;-60
2022/06/20 04:26:18;;;;;;;1.43;1.33;;;22.30;48.00;;;;;;5024776;28;20636;-59
2022/06/20 04:29:23;;;;;;;1.60;1.50;;;22.40;48.10;;;;;;5025658;28;20431;-59
2022/06/20 04:31:59;;;;;;;1.37;1.27;;;22.40;48.00;;;;;;5017355;28;20456;-58
2022/06/20 04:34:33;;;;;;;1.50;1.40;;;22.40;48.00;;;;;;5025043;28;20479;-59
2022/06/20 04:37:09;;;;;;;1.67;1.57;;;22.40;47.90;;;;;;5027344;28;20486;-60
2022/06/20 04:39:45;;;;;;;1.70;1.60;;;22.40;47.90;;;;;;5025523;28;20467;-61
2022/06/20 04:42:36;;;;;;;1.67;1.57;;;22.40;47.80;;;;;;5025307;28;20496;-59
2022/06/20 04:45:27;;;;;;;1.40;1.30;;;22.40;47.80;;;;;;5021663;28;20516;-59
2022/06/20 04:47:58;;;;;;;1.70;1.60;;;22.40;47.80;;;;;;5021655;28;20440;-60
2022/06/20 04:50:27;;;;;;;1.57;1.47;;;22.40;47.80;;;;;;5025583;28;20498;-59
2022/06/20 04:52:56;;;;;;;2.93;1.70;;;22.50;47.90;;;;;;5021568;28;20480;-59
2022/06/20 04:55:24;;;;;;;2.43;1.87;;;22.40;47.90;;;;;;5020564;28;20446;-59
2022/06/20 04:57:51;;;;;;;1.67;1.57;;;22.40;47.80;;;;;;5021772;28;21020;-59
2022/06/20 05:00:24;;;;;;;1.80;1.40;;;22.50;47.90;;;;;;5021986;28;20900;-59
2022/06/20 05:02:51;;;;;;;1.50;1.40;;;22.40;47.80;;;;;;5022805;28;20540;-58
2022/06/20 05:05:21;;;;;;;1.40;1.30;;;22.40;47.80;;;;;;5021356;28;20449;-58
2022/06/20 05:07:48;;;;;;;1.60;1.50;;;22.40;47.80;;;;;;5021731;28;20551;-60
2022/06/20 05:10:23;;;;;;;1.57;1.47;;;22.40;47.90;;;;;;5021939;28;20441;-60
2022/06/20 05:12:56;;;;;;;1.63;1.40;;;22.50;47.90;;;;;;5021538;28;20471;-62
2022/06/20 05:15:24;;;;;;;1.30;1.20;;;22.40;47.80;;;;;;5026279;28;20528;-59
2022/06/20 05:17:51;;;;;;;1.60;1.50;;;22.40;47.90;;;;;;5025516;28;20457;-62
2022/06/20 05:20:17;;;;;;;1.53;1.43;;;22.50;47.90;;;;;;5024136;28;20531;-59
2022/06/20 05:22:50;;;;;;;1.40;1.30;;;22.50;47.90;;;;;;5025368;28;20472;-62
2022/06/20 05:25:21;;;;;;;1.33;1.23;;;22.40;47.80;;;;;;5027449;28;20739;-60
2022/06/20 05:27:53;;;;;;;1.80;1.70;;;22.40;47.80;;;;;;5020324;28;20813;-60
2022/06/20 05:30:23;;;;;;;1.43;1.33;;;22.50;47.80;;;;;;5024773;28;21005;-63
2022/06/20 05:33:04;;;;;;;1.40;1.30;;;22.50;47.90;;;;;;5026795;28;20448;-60
2022/06/20 05:35:59;;;;;;;2.10;1.70;;;22.50;47.90;;;;;;5027850;28;20527;-60
2022/06/20 05:38:43;;;;;;;1.60;1.50;;;22.50;47.90;;;;;;5022497;28;20455;-59
2022/06/20 05:41:14;;;;;;;1.50;1.40;;;22.40;47.80;;;;;;5005153;28;20921;-59
2022/06/20 05:43:40;;;;;;;1.57;1.47;;;22.50;47.90;;;;;;5025471;28;20483;-59
2022/06/20 05:46:12;;;;;;;1.70;1.60;;;22.40;48.20;;;;;;5021994;28;20476;-58
2022/06/20 05:48:44;;;;;;;2.00;1.80;;;22.40;47.80;;;;;;5024592;28;20471;-59
2022/06/20 05:51:14;;;;;;;1.40;1.30;;;22.40;47.80;;;;;;5023384;28;20824;-59
2022/06/20 05:53:53;;;;;;;1.47;1.37;;;22.40;47.80;;;;;;5027519;28;20452;-59
2022/06/20 05:56:33;;;;;;;1.70;1.60;;;22.50;47.90;;;;;;5025977;28;20506;-59
2022/06/20 05:59:00;;;;;;;2.30;1.50;;;22.40;47.80;;;;;;5022055;28;20870;-59
2022/06/20 06:01:31;;;;;;;3.30;1.30;;;22.40;47.80;;;;;;5012565;28;20983;-59
2022/06/20 06:04:05;;;;;;;1.67;1.57;;;22.40;47.80;;;;;;5022842;28;20870;-58
2022/06/20 06:06:56;;;;;;;1.70;1.60;;;22.40;47.80;;;;;;5019782;28;20882;-59
2022/06/20 06:09:31;;;;;;;1.63;1.53;;;22.40;47.80;;;;;;5026342;28;20444;-59
2022/06/20 06:12:13;;;;;;;1.40;1.30;;;22.40;47.80;;;;;;5022279;28;20490;-59
2022/06/20 06:14:50;;;;;;;1.30;1.20;;;22.40;47.80;;;;;;5018900;28;20461;-59
2022/06/20 06:17:33;;;;;;;1.40;1.30;;;22.40;47.80;;;;;;5023337;28;20990;-59
2022/06/20 06:20:02;;;;;;;1.73;1.30;;;22.40;47.80;;;;;;5021234;28;20511;-59
2022/06/20 06:22:43;;;;;;;1.60;1.50;;;22.40;47.70;;;;;;5022777;28;20445;-58
2022/06/20 06:25:19;;;;;;;1.60;1.50;;;22.40;47.80;;;;;;5021309;28;20508;-58
2022/06/20 06:27:47;;;;;;;1.53;1.43;;;22.40;47.70;;;;;;5015398;28;20456;-58
2022/06/20 06:30:37;;;;;;;1.40;1.30;;;22.40;47.80;;;;;;5024501;28;20488;-59
2022/06/20 06:33:11;;;;;;;1.33;1.23;;;22.40;47.70;;;;;;5015795;28;20958;-58
2022/06/20 06:35:44;;;;;;;1.50;1.23;;;22.40;47.70;;;;;;5020436;28;20452;-58
2022/06/20 06:38:19;;;;;;;1.50;1.40;;;22.40;47.70;;;;;;5021480;28;20459;-59
2022/06/20 06:40:48;;;;;;;1.70;1.30;;;22.40;47.80;;;;;;5019865;28;20472;-58
2022/06/20 06:43:23;;;;;;;1.40;1.30;;;22.40;47.70;;;;;;5023083;28;20449;-59
2022/06/20 06:45:52;;;;;;;1.60;1.50;;;22.40;47.70;;;;;;5023122;28;20458;-59
2022/06/20 06:48:25;;;;;;;1.33;1.23;;;22.40;47.80;;;;;;5021376;28;20445;-58
2022/06/20 06:50:59;;;;;;;1.40;1.30;;;22.40;47.70;;;;;;5026440;28;20560;-59
2022/06/20 06:53:35;;;;;;;1.97;1.30;;;22.40;47.70;;;;;;5024361;28;20808;-59
2022/06/20 06:56:24;;;;;;;2.00;1.67;;;22.40;47.70;;;;;;5025867;28;20540;-59
2022/06/20 06:59:08;;;;;;;1.37;1.27;;;22.40;47.70;;;;;;5022906;28;20441;-58
2022/06/20 07:01:40;;;;;;;1.53;1.27;;;22.40;47.80;;;;;;5021237;28;20464;-59
2022/06/20 07:04:17;;;;;;;1.43;1.33;;;22.40;47.70;;;;;;5023086;28;20527;-59
2022/06/20 07:06:49;;;;;;;1.40;1.30;;;22.40;47.70;;;;;;5021316;28;20480;-58
2022/06/20 07:09:19;;;;;;;1.60;1.50;;;22.40;47.70;;;;;;5023256;28;20453;-59
2022/06/20 07:12:10;;;;;;;1.37;1.27;;;22.40;47.70;;;;;;5022000;28;20480;-58
2022/06/20 07:14:42;;;;;;;1.40;1.30;;;22.40;47.70;;;;;;5020481;28;20456;-58
2022/06/20 07:17:11;;;;;;;1.30;1.20;;;22.40;47.70;;;;;;5023336;28;20453;-58
2022/06/20 07:19:42;;;;;;;1.30;1.20;;;22.40;47.70;;;;;;5020785;28;20961;-58
2022/06/20 07:22:09;;;;;;;1.30;1.20;;;22.40;47.60;;;;;;5021866;28;20468;-58
2022/06/20 07:24:35;;;;;;;1.20;1.10;;;22.40;47.70;;;;;;5023320;28;20546;-59
2022/06/20 07:27:08;;;;;;;1.30;1.20;;;22.40;47.70;;;;;;5020534;28;20965;-59
2022/06/20 07:29:38;;;;;;;1.70;1.60;;;22.40;47.70;;;;;;5024130;28;20268;-59
2022/06/20 07:32:12;;;;;;;1.20;1.10;;;22.40;47.60;;;;;;5019142;28;20453;-58
2022/06/20 07:35:09;;;;;;;1.23;1.13;;;22.40;47.60;;;;;;5021586;28;20511;-59
2022/06/20 07:38:04;;;;;;;1.30;1.20;;;22.40;48.40;;;;;;5006769;28;20455;-59
2022/06/20 07:40:35;;;;;;;1.60;1.17;;;22.40;47.70;;;;;;5006333;28;20492;-59
2022/06/20 07:43:19;;;;;;;2.23;1.30;;;22.40;47.70;;;;;;5021348;28;20890;-58
2022/06/20 07:45:47;;;;;;;1.40;1.30;;;22.40;47.70;;;;;;5020927;28;20434;-59
2022/06/20 07:48:36;;;;;;;1.50;1.40;;;22.40;47.70;;;;;;5017942;28;20524;-58
2022/06/20 07:51:21;;;;;;;1.50;1.40;;;22.40;47.70;;;;;;5021858;28;20457;-58
2022/06/20 07:53:55;;;;;;;1.20;1.10;;;22.40;47.60;;;;;;5019607;28;20456;-58
2022/06/20 07:56:50;;;;;;;1.40;1.30;;;22.40;47.60;;;;;;5018740;28;20942;-58
2022/06/20 07:59:34;;;;;;;1.30;1.20;;;22.40;47.60;;;;;;5017226;28;20793;-59
2022/06/20 08:02:18;;;;;;;2.20;1.23;;;22.40;47.70;;;;;;5020495;28;20464;-59
2022/06/20 08:04:46;;;;;;;1.50;1.40;;;22.40;48.40;;;;;;5021573;28;20437;-59
2022/06/20 08:07:40;;;;;;;1.30;1.20;;;22.40;47.70;;;;;;5017564;28;20423;-59
2022/06/20 08:10:17;;;;;;;1.60;1.50;;;22.40;47.60;;;;;;5026229;28;20456;-59
2022/06/20 08:13:21;;;;;;;1.30;1.20;;;22.40;47.70;;;;;;5014811;28;20468;-58
2022/06/20 08:16:02;;;;;;;1.30;1.20;;;22.40;48.50;;;;;;5023451;28;20460;-58
2022/06/20 08:18:29;;;;;;;1.50;1.40;;;22.40;47.70;;;;;;5023713;28;20467;-58
2022/06/20 08:21:06;;;;;;;1.10;1.00;;;22.40;47.70;;;;;;5022691;28;20475;-58
2022/06/20 08:23:45;;;;;;;1.37;1.23;;;22.40;47.70;;;;;;5024840;28;20448;-58
2022/06/20 08:26:17;;;;;;;1.30;1.20;;;22.40;47.70;;;;;;5025934;28;20859;-58
2022/06/20 08:28:48;;;;;;;1.30;1.07;;;22.40;47.70;;;;;;5028186;28;20448;-58
2022/06/20 08:31:28;;;;;;;1.23;1.13;;;22.30;47.60;;;;;;5026638;28;20426;-59
2022/06/20 08:34:06;;;;;;;1.30;1.10;;;22.40;47.70;;;;;;5024995;28;20451;-59
2022/06/20 08:36:49;;;;;;;1.30;1.20;;;22.40;47.70;;;;;;5023224;28;20426;-58
2022/06/20 08:39:30;;;;;;;1.20;1.07;;;22.40;47.70;;;;;;5024128;28;21007;-58
2022/06/20 08:42:05;;;;;;;1.67;1.10;;;22.30;47.70;;;;;;5020340;28;20825;-59
2022/06/20 08:44:49;;;;;;;1.30;1.20;;;22.30;47.70;;;;;;5024892;28;20459;-59
2022/06/20 08:47:47;;;;;;;1.37;1.27;;;22.40;47.70;;;;;;5023084;28;20497;-59
2022/06/20 08:50:40;;;;;;;1.23;1.13;;;22.40;47.70;;;;;;5026585;28;20526;-59
2022/06/20 08:53:57;;;;;;;1.60;1.50;;;22.40;47.70;;;;;;5023239;28;20444;-59
2022/06/20 08:56:48;;;;;;;1.63;1.20;;;22.30;47.60;;;;;;4982375;28;20456;-58
2022/06/20 08:59:44;;;;;;;1.10;1.00;;;22.30;47.70;;;;;;5021751;28;20432;-59
2022/06/20 09:02:26;;;;;;;1.30;1.20;;;22.40;47.70;;;;;;5022463;28;20472;-59
2022/06/20 09:05:00;;;;;;;1.53;1.43;;;22.40;47.80;;;;;;5022525;28;20449;-58
2022/06/20 09:07:57;;;;;;;1.90;1.50;;;22.30;47.70;;;;;;5023572;28;20432;-59
2022/06/20 09:10:49;;;;;;;1.43;1.20;;;22.30;47.70;;;;;;5022842;28;20460;-59
2022/06/20 09:13:59;;;;;;;1.33;1.20;;;22.30;47.70;;;;;;5019872;28;20472;-58
2022/06/20 09:16:31;;;;;;;1.40;1.30;;;22.30;47.70;;;;;;5021658;28;20460;-58
2022/06/20 09:19:14;;;;;;;1.30;1.10;;;22.40;47.70;;;;;;5020210;28;20952;-58
2022/06/20 09:21:55;;;;;;;1.40;1.30;;;22.30;47.70;;;;;;5020594;28;20580;-59
2022/06/20 09:25:07;;;;;;;1.30;1.20;;;22.30;47.70;;;;;;5023606;28;20533;-58
2022/06/20 09:28:06;;;;;;;1.40;1.30;;;22.40;47.80;;;;;;5019568;28;20499;-59
2022/06/20 09:30:47;;;;;;;1.20;1.10;;;22.30;47.70;;;;;;5024888;28;20536;-58
2022/06/20 09:33:49;;;;;;;1.30;1.20;;;22.30;47.70;;;;;;5022834;28;20444;-59
2022/06/20 09:36:15;;;;;;;1.57;1.20;;;22.30;47.70;;;;;;5004039;28;20449;-58
2022/06/20 09:39:12;;;;;;;1.50;1.40;;;22.30;47.70;;;;;;5022063;28;20460;-58
2022/06/20 09:41:43;;;;;;;1.50;1.40;;;22.30;47.70;;;;;;5025860;28;20763;-58
2022/06/20 09:44:18;;;;;;;1.33;1.10;;;22.30;47.80;;;;;;5025651;28;20964;-59
2022/06/20 09:47:04;;;;;;;1.37;1.27;;;22.30;47.70;;;;;;5026303;28;20463;-58
2022/06/20 09:49:46;;;;;;;1.30;1.20;;;22.30;47.70;;;;;;5027757;28;20539;-59
2022/06/20 09:52:50;;;;;;;1.40;1.30;;;22.30;47.70;;;;;;5023860;28;20452;-58
2022/06/20 09:55:27;;;;;;;1.50;1.40;;;22.30;47.70;;;;;;5026414;28;20448;-59
2022/06/20 09:58:17;;;;;;;1.57;1.47;;;22.30;47.80;;;;;;5025279;28;20453;-61
2022/06/20 10:00:58;;;;;;;1.60;1.50;;;22.30;48.60;;;;;;5019854;28;21086;-58
2022/06/20 10:03:24;;;;;;;1.40;1.30;;;22.30;47.70;;;;;;5022487;28;20464;-58
2022/06/20 10:06:01;;;;;;;1.40;1.30;;;22.30;47.70;;;;;;5024076;28;20459;-59
2022/06/20 10:08:43;;;;;;;1.60;1.50;;;22.30;47.80;;;;;;5021794;28;20563;-58
2022/06/20 10:11:36;;;;;;;1.60;1.50;;;22.30;47.70;;;;;;5023055;28;20492;-58
2022/06/20 10:14:12;;;;;;;1.40;1.30;;;22.30;47.70;;;;;;5019102;28;20481;-58
2022/06/20 10:17:05;;;;;;;1.43;1.33;;;22.30;47.70;;;;;;5023900;28;20460;-58
2022/06/20 10:19:44;;;;;;;1.43;1.33;;;22.30;47.70;;;;;;5021264;28;20449;-58
2022/06/20 10:22:32;;;;;;;1.43;1.33;;;22.30;47.70;;;;;;5021678;28;20446;-59
2022/06/20 10:25:06;;;;;;;1.63;1.53;;;22.30;47.70;;;;;;5020496;28;20460;-59
2022/06/20 10:27:34;;;;;;;1.60;1.50;;;22.30;47.80;;;;;;5020212;28;20474;-58
2022/06/20 10:30:17;;;;;;;1.50;1.40;;;22.30;47.70;;;;;;5021283;28;20449;-58
2022/06/20 10:33:13;;;;;;;1.60;1.50;;;22.30;47.70;;;;;;5020765;28;20453;-58
2022/06/20 10:35:47;;;;;;;2.00;1.90;;;22.30;47.60;;;;;;5018359;28;20505;-58
2022/06/20 10:38:22;;;;;;;1.50;1.40;;;22.30;47.70;;;;;;5020694;28;20777;-58
2022/06/20 10:40:52;;;;;;;2.93;1.70;;;22.30;47.70;;;;;;5017156;28;20568;-58
2022/06/20 10:43:44;;;;;;;1.53;1.43;;;22.30;47.70;;;;;;5024295;28;20800;-58
2022/06/20 10:46:15;;;;;;;1.50;1.40;;;22.30;47.70;;;;;;5016999;28;20454;-59
2022/06/20 10:48:57;;;;;;;1.50;1.40;;;22.30;47.70;;;;;;5019130;28;21296;-59
2022/06/20 10:51:31;;;;;;;1.67;1.57;;;22.30;47.70;;;;;;5018816;28;20459;-59
2022/06/20 10:54:20;;;;;;;1.70;1.60;;;22.30;47.70;;;;;;5013992;28;20449;-58
2022/06/20 10:57:06;;;;;;;1.60;1.50;;;22.30;47.70;;;;;;5020872;28;20463;-60
2022/06/20 10:59:40;;;;;;;1.70;1.60;;;22.30;47.70;;;;;;5012927;28;20453;-59
2022/06/20 11:02:20;;;;;;;2.00;1.90;;;22.30;47.70;;;;;;5022991;28;20456;-58
2022/06/20 11:05:24;;;;;;;1.70;1.60;;;22.30;47.60;;;;;;5024995;28;20460;-58
2022/06/20 11:08:00;;;;;;;1.60;1.50;;;22.30;47.60;;;;;;4948888;29;20448;-58
2022/06/20 11:10:51;;;;;;;1.70;1.60;;;22.30;47.70;;;;;;4946776;29;20495;-58
2022/06/20 11:13:56;;;;;;;1.90;1.80;;;22.30;47.70;;;;;;4984926;28;20528;-58
2022/06/20 11:16:27;;;;;;;1.70;1.60;;;22.30;47.60;;;;;;5002517;28;20445;-58
2022/06/20 11:19:11;;;;;;;2.00;1.90;;;22.30;47.70;;;;;;5000735;28;20456;-62
2022/06/20 11:21:55;;;;;;;1.77;1.67;;;22.30;47.60;;;;;;5003029;28;20458;-59
2022/06/20 11:24:42;;;;;;;2.07;1.93;;;22.30;47.60;;;;;;5001907;28;20449;-59
2022/06/20 11:27:41;;;;;;;2.30;2.10;;;22.30;47.60;;;;;;5000166;28;20458;-59
2022/06/20 11:30:30;;;;;;;2.23;2.13;;;22.30;47.60;;;;;;5005777;28;20458;-59
2022/06/20 11:33:18;;;;;;;2.00;1.90;;;22.30;47.60;;;;;;5002057;28;20860;-58
2022/06/20 11:36:10;;;;;;;2.20;2.10;;;22.30;47.60;;;;;;5004133;28;21044;-58
2022/06/20 11:38:54;;;;;;;2.20;2.10;;;22.30;47.60;;;;;;5002080;28;20464;-59
2022/06/20 11:41:51;;;;;;;1.90;1.80;;;22.30;47.60;;;;;;4999359;28;20450;-58
2022/06/20 11:44:46;;;;;;;2.03;1.93;;;22.30;47.60;;;;;;4999922;28;20442;-59
2022/06/20 11:47:43;;;;;;;2.10;2.00;;;22.30;47.60;;;;;;4999832;28;20460;-58
2022/06/20 11:50:30;;;;;;;2.20;2.10;;;22.20;47.50;;;;;;5001345;28;20989;-58
2022/06/20 11:52:58;;;;;;;2.20;2.10;;;22.30;47.60;;;;;;5002294;28;20461;-59
2022/06/20 11:55:36;;;;;;;2.20;2.10;;;22.30;47.60;;;;;;4996069;28;20961;-58
2022/06/20 11:58:25;;;;;;;2.20;2.10;;;22.30;47.60;;;;;;5001099;28;20544;-58
2022/06/20 12:01:17;;;;;;;2.40;2.30;;;22.30;47.60;;;;;;5004023;28;20485;-58
2022/06/20 12:04:04;;;;;;;2.70;2.60;;;22.30;47.60;;;;;;5005286;28;21000;-58
2022/06/20 12:07:00;;;;;;;2.70;2.50;;;22.30;47.60;;;;;;5003486;28;20798;-58
2022/06/20 12:09:41;;;;;;;2.67;2.57;;;22.30;47.60;;;;;;5003612;28;20995;-59
2022/06/20 12:12:42;;;;;;;2.80;2.70;;;22.30;47.60;;;;;;5019185;28;20490;-58
2022/06/20 12:15:57;;;;;;;2.53;2.43;;;22.30;47.60;;;;;;5022655;28;20474;-58
2022/06/20 12:24:25;;;;;;;3.20;3.00;;;22.30;47.60;;;;;;5025044;28;20547;-58
2022/06/20 12:26:52;;;;;;;3.07;2.87;;;22.20;47.50;;;;;;5027058;28;20443;-58
2022/06/20 12:29:25;;;;;;;3.70;3.50;;;22.30;47.60;;;;;;5027122;28;20451;-58
2022/06/20 12:31:54;;;;;;;3.10;3.00;;;22.30;47.60;;;;;;5025703;28;20455;-58
2022/06/20 12:34:44;;;;;;;3.20;3.10;;;22.20;47.40;;;;;;5027181;28;20495;-58
2022/06/20 12:37:21;;;;;;;3.37;3.27;;;22.20;47.50;;;;;;5028527;28;20544;-58
2022/06/20 12:40:15;;;;;;;2.77;2.67;;;22.30;47.50;;;;;;5024017;28;20473;-59
2022/06/20 12:42:49;;;;;;;3.83;3.53;;;22.30;47.50;;;;;;5026797;28;20520;-59
2022/06/20 12:45:49;;;;;;;4.13;3.93;;;22.30;47.50;;;;;;5022464;28;20538;-59
2022/06/20 12:48:38;;;;;;;3.67;3.50;;;22.30;47.60;;;;;;5022731;28;20828;-58
2022/06/20 12:51:22;;;;;;;4.30;4.10;;;22.30;47.50;;;;;;5026011;28;20556;-59
2022/06/20 12:53:50;;;;;;;3.90;3.70;;;22.30;47.90;;;;;;5024867;28;20520;-59
2022/06/20 12:56:36;;;;;;;4.10;3.80;;;22.20;47.40;;;;;;5026319;28;20495;-59
2022/06/20 12:59:43;;;;;;;3.83;3.63;;;22.20;47.30;;;;;;5024485;28;20456;-58
2022/06/20 13:02:22;;;;;;;4.13;3.90;;;22.30;47.50;;;;;;5018454;28;20481;-58
2022/06/20 13:04:50;;;;;;;4.10;3.80;;;22.20;47.40;;;;;;5023688;28;20795;-58
2022/06/20 13:07:23;;;;;;;4.20;4.00;;;22.30;47.50;;;;;;5022032;28;20548;-58
2022/06/20 13:10:15;;;;;;;4.20;4.00;;;22.30;47.50;;;;;;5022457;28;20468;-58
2022/06/20 13:13:02;;;;;;;4.50;4.30;;;22.30;47.40;;;;;;5022359;28;20476;-58
2022/06/20 13:15:49;;;;;;;4.13;3.93;;;22.30;47.50;;;;;;5023994;28;20514;-58
2022/06/20 13:18:55;;;;;;;3.97;3.77;;;22.20;47.30;;;;;;5021839;28;20436;-58
2022/06/20 13:21:36;;;;;;;4.40;4.20;;;22.30;47.50;;;;;;5022617;28;21019;-58
2022/06/20 13:24:14;;;;;;;4.57;4.37;;;22.30;47.40;;;;;;5023229;28;20449;-58
2022/06/20 13:26:55;;;;;;;4.37;4.17;;;22.30;47.50;;;;;;5022511;28;20450;-58
2022/06/20 13:29:33;;;;;;;4.70;4.50;;;22.30;47.50;;;;;;5018415;28;20808;-59
2022/06/20 13:32:02;;;;;;;5.03;4.83;;;22.30;47.50;;;;;;5020437;28;20542;-58
2022/06/20 13:35:01;;;;;;;4.60;4.40;;;22.30;47.40;;;;;;5016949;28;20456;-58
2022/06/20 13:37:36;;;;;;;4.50;4.30;;;22.30;47.40;;;;;;5024085;28;21052;-58
2022/06/20 13:40:29;;;;;;;5.43;5.13;;;22.20;47.30;;;;;;5018735;28;20538;-58
2022/06/20 13:43:05;;;;;;;4.73;4.47;;;22.30;47.40;;;;;;5018534;28;20485;-58
2022/06/20 13:45:53;;;;;;;4.27;4.07;;;22.30;47.50;;;;;;5022748;28;20740;-58
2022/06/20 13:48:36;;;;;;;5.07;4.77;;;22.20;47.40;;;;;;4973695;28;20440;-58
2022/06/20 13:51:34;;;;;;;4.73;4.43;;;22.30;47.50;;;;;;5024197;28;20522;-58
2022/06/20 13:54:13;;;;;;;4.60;4.40;;;22.20;47.30;;;;;;5023911;28;20456;-58
2022/06/20 13:57:09;;;;;;;5.60;5.30;;;22.30;47.50;;;;;;5023080;28;20476;-58
2022/06/20 13:59:53;;;;;;;4.47;4.27;;;22.20;48.10;;;;;;5018910;28;20499;-58